This is the latest recevied weather packets stored in our database for station/object K0JSC-13. If no packets are shown the sender has not sent any weather packets the latest 10 day(s).
| Time | Temp. | Humidity | Pressure | Rain* | Wind** | Luminosity | Snow |
|---|---|---|---|---|---|---|---|
| 1777843083 | 25° C | 15% | 988.1 hPa | 0 mm | - | - | - |
| 1777840023 | 23.33° C | 16% | 989.6 hPa | 0 mm | - | - | - |
| 1777838043 | 22.22° C | 17% | 990.2 hPa | 0 mm | - | - | - |
| 1777820943 | 17.22° C | 32% | 995.4 hPa | 0 mm | - | - | - |
| 1777818424 | 13.33° C | 38% | 996.1 hPa | 0 mm | - | - | - |
| 1777815903 | 12.78° C | 37% | 996.1 hPa | 0 mm | - | - | - |
| 1777813203 | 10.56° C | 42% | 996 hPa | 0 mm | - | - | - |
| 1777811224 | 8.33° C | 49% | 995.8 hPa | 0 mm | - | - | - |
| 1777810683 | 8.89° C | 48% | 995.6 hPa | 0 mm | - | - | - |
| 1777806544 | 9.44° C | 43% | 995.6 hPa | 0 mm | - | - | - |
| 1777802404 | 8.89° C | 45% | 995.7 hPa | 0 mm | - | - | - |
| 1777800423 | 10° C | 40% | 995.8 hPa | 0 mm | - | - | - |
| 1777794843 | 11.11° C | 37% | 996.2 hPa | 0 mm | - | - | - |
| 1777792143 | 11.11° C | 39% | 996.4 hPa | 0 mm | - | - | - |
| 1777790703 | 9.44° C | 43% | 996.4 hPa | 0 mm | - | - | - |
| 1777788004 | 8.33° C | 56% | 996.4 hPa | 0 mm | - | - | - |
| 1777787643 | 8.33° C | 55% | 996.4 hPa | 0 mm | - | - | - |
| 1777787103 | 8.89° C | 54% | 996.4 hPa | 0 mm | - | - | - |
| 1777780803 | 13.89° C | 30% | 996.4 hPa | 0 mm | - | - | - |
| 1777777204 | 15° C | 29% | 996.3 hPa | 0 mm | - | - | - |
| 1777775223 | 16.11° C | 27% | 995.9 hPa | 0 mm | - | - | - |
| 1777774683 | 16.67° C | 26% | 995.8 hPa | 0 mm | - | - | - |
| 1777771083 | 20.56° C | 20% | 995.3 hPa | 0 mm | - | - | - |
| 1777769104 | 21.67° C | 20% | 995.2 hPa | 0 mm | - | - | - |
| 1777768024 | 22.22° C | 20% | 995.4 hPa | 0 mm | - | - | - |
* Rain latest hour (hover to see other rain measurements)
** Current wind speed in m/s (hover to see current wind gust speed)